KAND

Anderson Regional Airport

Anderson, South Carolina, USA
METAR KAND 181356Z AUTO 24009KT 10SM BKN016 26/22 A3008 RMK AO2 SLP175 T02560222
Observed Flight Rules
Aug-18 @ 13:56 UTC (57 minutes ago) Marginal Visual Flight Rules
Wind Visibility Clouds
240° at 9 knots 10 miles
  • Broken at 1,600' AGL
Temperatures Readings
Current 26°C / 79°F
Dewpoint 22°C / 72°F
Humidity 79%
Altimeter 30.08" Hg
Pressure 1017.5 hPa
Elevation 239
METAR KAND 181356Z AUTO 24009KT 10SM BKN016 26/22 A3008 RMK AO2 SLP175 T02560222
Observed Flight Rules
Aug-18 @ 13:56 UTC
(57 minutes ago)
MVFR
Wind Visibility
240° at 9 knots 10 miles
Clouds
  • Broken at 1,600' AGL
Temperature Dewpoint
26°C / 79°F 22°C / 72°F
Humidity Altimeter Pressure
79% 30.08" Hg 1017.5 hPa